createdAt,value
2023-05-14T00:00:26.785Z,90949.78
2023-05-14T00:02:53.294Z,90952.13
2023-05-14T00:05:19.695Z,90951.97
2023-05-14T00:07:46.007Z,90950.69
2023-05-14T00:10:12.287Z,90949.16
2023-05-14T00:12:38.562Z,90944.03
2023-05-14T00:15:05.473Z,90942.47
2023-05-14T00:17:31.798Z,90951.56
2023-05-14T00:19:59.383Z,90945.63
2023-05-14T00:22:25.684Z,90943.03
2023-05-14T00:24:51.979Z,90948.50
2023-05-14T00:27:18.316Z,90946.78
2023-05-14T00:29:45.680Z,90945.38
2023-05-14T00:32:11.955Z,90930.91
2023-05-14T00:34:38.232Z,90935.31
2023-05-14T00:37:04.565Z,90929.28
2023-05-14T00:39:30.847Z,90934.75
2023-05-14T00:41:57.136Z,90933.44
2023-05-14T00:44:23.582Z,90929.22
2023-05-14T00:46:49.877Z,90926.34
2023-05-14T00:49:16.211Z,90921.47
2023-05-14T00:51:42.525Z,90918.25
2023-05-14T00:54:08.850Z,90925.53
2023-05-14T00:56:35.175Z,90921.28
2023-05-14T00:59:01.468Z,90923.13
2023-05-14T01:01:28.625Z,90922.81
2023-05-14T01:03:57.673Z,90920.13
2023-05-14T01:06:43.138Z,90914.97
2023-05-14T01:09:12.450Z,90919.03
2023-05-14T01:11:51.713Z,90914.22
2023-05-14T01:14:17.958Z,90912.50
2023-05-14T01:16:44.717Z,90910.84
2023-05-14T01:19:26.238Z,90906.13
2023-05-14T01:21:52.570Z,90910.31
2023-05-14T01:24:18.939Z,90909.91
2023-05-14T01:26:45.288Z,90906.56
2023-05-14T01:29:23.741Z,90902.94
2023-05-14T01:31:50.445Z,90906.84
2023-05-14T01:34:18.072Z,90898.56
2023-05-14T01:36:44.391Z,90899.03
2023-05-14T01:39:10.676Z,90890.53
2023-05-14T01:41:37.276Z,90899.84
2023-05-14T01:44:03.580Z,90897.63
2023-05-14T01:46:33.633Z,90895.38
2023-05-14T01:49:00.246Z,90892.28
2023-05-14T01:51:26.593Z,90888.34
2023-05-14T01:53:52.899Z,90893.84
2023-05-14T01:56:19.845Z,90890.19
2023-05-14T01:58:46.158Z,90894.72
2023-05-14T02:01:12.505Z,90895.94
2023-05-14T02:03:38.866Z,90893.03
2023-05-14T02:06:05.193Z,90894.06
2023-05-14T02:08:31.488Z,90897.22
2023-05-14T02:10:57.783Z,90892.34
2023-05-14T02:13:24.800Z,90889.22
2023-05-14T02:15:51.177Z,90888.00
2023-05-14T02:18:17.550Z,90886.16
2023-05-14T02:20:43.817Z,90886.78
2023-05-14T02:23:10.260Z,90893.56
2023-05-14T02:25:36.597Z,90887.94
2023-05-14T02:28:02.874Z,90885.06
2023-05-14T02:30:30.006Z,90884.69
2023-05-14T02:32:56.468Z,90886.25
2023-05-14T02:35:22.926Z,90882.00
2023-05-14T02:37:49.251Z,90883.41
2023-05-14T02:40:15.752Z,90882.56
2023-05-14T02:42:42.038Z,90889.63
2023-05-14T02:45:08.406Z,90886.22
2023-05-14T02:47:36.978Z,90880.47
2023-05-14T02:50:06.250Z,90880.97
2023-05-14T02:52:32.732Z,90873.38
2023-05-14T02:54:59.005Z,90879.47
2023-05-14T02:57:25.356Z,90873.56
2023-05-14T02:59:51.645Z,90866.25
2023-05-14T03:02:18.446Z,90870.44
2023-05-14T03:04:45.411Z,90874.41
2023-05-14T03:07:11.675Z,90869.38
2023-05-14T03:09:38.444Z,90866.59
2023-05-14T03:12:04.923Z,90865.38
2023-05-14T03:14:31.410Z,90867.59
2023-05-14T03:16:57.766Z,90872.47
2023-05-14T03:19:24.107Z,90867.47
2023-05-14T03:21:50.463Z,90868.75
2023-05-14T03:24:16.731Z,90861.03
2023-05-14T03:26:43.131Z,90865.78
2023-05-14T03:29:10.673Z,90873.22
2023-05-14T03:31:37.118Z,90869.75
2023-05-14T03:34:03.386Z,90868.22
2023-05-14T03:36:29.760Z,90870.34
2023-05-14T03:38:56.075Z,90868.84
2023-05-14T03:41:23.020Z,90860.41
2023-05-14T03:43:49.324Z,90859.44
2023-05-14T03:46:15.780Z,90874.97
2023-05-14T03:48:42.545Z,90865.72
2023-05-14T03:51:08.841Z,90861.41
2023-05-14T03:53:35.178Z,90864.28
2023-05-14T03:56:01.475Z,90864.75
2023-05-14T03:58:27.760Z,90864.53
2023-05-14T04:00:54.063Z,90853.91
2023-05-14T04:03:20.618Z,90852.47
2023-05-14T04:05:46.964Z,90853.41
2023-05-14T04:08:13.265Z,90856.47
2023-05-14T04:10:39.575Z,90852.38
2023-05-14T04:13:05.885Z,90844.00
2023-05-14T04:15:32.233Z,90853.31
2023-05-14T04:17:58.581Z,90854.06
2023-05-14T04:20:25.156Z,90859.16
2023-05-14T04:22:51.669Z,90852.72
2023-05-14T04:25:18.503Z,90854.44
2023-05-14T04:27:44.837Z,90852.63
2023-05-14T04:30:11.257Z,90854.13
2023-05-14T04:32:37.990Z,90850.84
2023-05-14T04:35:04.613Z,90856.91
2023-05-14T04:37:31.097Z,90854.97
2023-05-14T04:39:57.404Z,90849.63
2023-05-14T04:42:23.717Z,90855.03
2023-05-14T04:44:50.013Z,90854.69
2023-05-14T04:47:16.643Z,90855.97
2023-05-14T04:49:43.283Z,90849.53
2023-05-14T04:52:09.592Z,90856.91
2023-05-14T04:54:36.026Z,90852.22
2023-05-14T04:57:03.235Z,90861.72
2023-05-14T04:59:30.017Z,90859.00
2023-05-14T05:01:56.345Z,90856.13
2023-05-14T05:04:23.945Z,90861.16
2023-05-14T05:06:50.660Z,90864.25
2023-05-14T05:09:19.623Z,90867.72
2023-05-14T05:11:45.894Z,90862.22
2023-05-14T05:14:12.252Z,90865.38
2023-05-14T05:16:38.633Z,90867.38
2023-05-14T05:19:04.973Z,90865.19
2023-05-14T05:21:31.314Z,90867.09
2023-05-14T05:23:57.584Z,90864.91
2023-05-14T05:26:24.532Z,90867.19
2023-05-14T05:28:50.864Z,90866.22
2023-05-14T05:31:19.571Z,90863.97
2023-05-14T05:33:46.471Z,90867.22
2023-05-14T05:36:12.806Z,90863.09
2023-05-14T05:38:39.130Z,90863.97
2023-05-14T05:41:05.591Z,90858.38
2023-05-14T05:43:33.469Z,90863.38
2023-05-14T05:46:00.542Z,90865.88
2023-05-14T05:48:26.924Z,90862.53
2023-05-14T05:50:53.209Z,90857.66
2023-05-14T05:53:19.572Z,90875.34
2023-05-14T05:55:45.866Z,90876.47
2023-05-14T05:58:13.923Z,90873.13
2023-05-14T06:00:40.252Z,90868.09
2023-05-14T06:03:07.105Z,90870.88
2023-05-14T06:05:33.468Z,90864.16
2023-05-14T06:07:59.805Z,90863.19
2023-05-14T06:10:26.253Z,90860.22
2023-05-14T06:12:52.677Z,90857.72
2023-05-14T06:15:18.986Z,90855.91
2023-05-14T06:17:45.804Z,90854.69
2023-05-14T06:20:12.279Z,90859.44
2023-05-14T06:22:38.647Z,90859.88
2023-05-14T06:25:05.034Z,90864.91
2023-05-14T06:27:31.290Z,90866.16
2023-05-14T06:29:57.598Z,90861.56
2023-05-14T06:32:23.935Z,90856.25
2023-05-14T06:34:50.430Z,90854.53
2023-05-14T06:37:16.859Z,90857.47
2023-05-14T06:39:49.709Z,90855.72
2023-05-14T06:42:16.371Z,90851.69
2023-05-14T06:44:42.712Z,90849.88
2023-05-14T06:47:09.118Z,90858.16
2023-05-14T06:49:35.668Z,90852.97
2023-05-14T06:52:01.946Z,90852.72
2023-05-14T06:54:28.224Z,90852.44
2023-05-14T06:56:54.560Z,90864.56
2023-05-14T06:59:20.862Z,90854.97
2023-05-14T07:01:47.227Z,90865.47
2023-05-14T07:04:13.631Z,90858.63
2023-05-14T07:06:40.045Z,90867.16
2023-05-14T07:09:07.074Z,90868.53
2023-05-14T07:11:33.425Z,90860.59
2023-05-14T07:13:59.820Z,90860.44
2023-05-14T07:16:26.141Z,90856.53
2023-05-14T07:18:52.496Z,90859.88
2023-05-14T07:21:18.872Z,90853.88
2023-05-14T07:23:45.192Z,90862.53
2023-05-14T07:26:11.702Z,90859.19
2023-05-14T07:28:38.026Z,90861.28
2023-05-14T07:31:08.826Z,90848.16
2023-05-14T07:33:36.294Z,90844.41
2023-05-14T07:36:02.580Z,90855.00
2023-05-14T07:38:28.876Z,90858.47
2023-05-14T07:40:55.135Z,90857.06
2023-05-14T07:43:21.542Z,90851.06
2023-05-14T07:45:47.835Z,90852.06
2023-05-14T07:48:14.207Z,90851.19
2023-05-14T07:50:40.724Z,90849.78
2023-05-14T07:53:07.009Z,90844.16
2023-05-14T07:55:33.290Z,90849.78
2023-05-14T07:57:59.591Z,90850.09
2023-05-14T08:00:26.078Z,90835.63
2023-05-14T08:02:52.874Z,90848.00
2023-05-14T08:05:19.471Z,90845.78
2023-05-14T08:07:45.802Z,90845.47
2023-05-14T08:10:12.231Z,90837.81
2023-05-14T08:12:38.969Z,90847.88
2023-05-14T08:15:07.561Z,90843.53
2023-05-14T08:17:33.910Z,90837.75
2023-05-14T08:20:00.356Z,90838.50
2023-05-14T08:22:26.651Z,90825.81
2023-05-14T08:24:52.935Z,90830.63
2023-05-14T08:27:19.249Z,90832.16
2023-05-14T08:29:45.540Z,90828.22
2023-05-14T08:32:22.836Z,90830.81
2023-05-14T08:34:50.617Z,90824.56
2023-05-14T08:37:16.911Z,90827.75
2023-05-14T08:39:43.339Z,90828.56
2023-05-14T08:42:09.609Z,90821.22
2023-05-14T08:44:39.847Z,90814.75
2023-05-14T08:47:06.131Z,90823.53
2023-05-14T08:49:35.038Z,90817.19
2023-05-14T08:52:01.328Z,90820.19
2023-05-14T08:54:28.770Z,90818.09
2023-05-14T08:56:55.211Z,90818.78
2023-05-14T08:59:21.511Z,90808.53
2023-05-14T09:01:48.467Z,90809.13
2023-05-14T09:04:19.610Z,90807.28
2023-05-14T09:06:45.960Z,90811.25
2023-05-14T09:09:12.971Z,90801.28
2023-05-14T09:11:42.438Z,90802.91
2023-05-14T09:14:09.756Z,90797.91
2023-05-14T09:16:37.001Z,90808.47
2023-05-14T09:19:04.226Z,90800.38
2023-05-14T09:21:32.896Z,90799.91
2023-05-14T09:23:59.894Z,90805.19
2023-05-14T09:26:26.490Z,90795.28
2023-05-14T09:28:56.334Z,90789.28
2023-05-14T09:31:22.755Z,90796.13
2023-05-14T09:33:52.096Z,90796.19
2023-05-14T09:36:18.570Z,90798.66
2023-05-14T09:38:44.896Z,90792.25
2023-05-14T09:41:11.195Z,90792.00
2023-05-14T09:43:37.502Z,90782.41
2023-05-14T09:46:03.860Z,90783.03
2023-05-14T09:48:30.294Z,90778.75
2023-05-14T09:50:56.594Z,90780.28
2023-05-14T09:53:22.939Z,90782.53
2023-05-14T09:55:49.290Z,90777.47
2023-05-14T09:58:15.615Z,90773.44
2023-05-14T10:00:45.466Z,90774.56
2023-05-14T10:03:13.074Z,90769.91
2023-05-14T10:05:40.430Z,90763.94
2023-05-14T10:08:12.298Z,90764.84
2023-05-14T10:10:38.796Z,90760.97
2023-05-14T10:13:05.761Z,90761.22
2023-05-14T10:15:35.147Z,90754.53
2023-05-14T10:18:03.347Z,90750.84
2023-05-14T10:20:29.668Z,90754.59
2023-05-14T10:22:56.401Z,90747.66
2023-05-14T10:25:22.728Z,90742.81
2023-05-14T10:27:49.070Z,90744.44
2023-05-14T10:30:15.379Z,90748.78
2023-05-14T10:32:43.901Z,90738.31
2023-05-14T10:35:17.141Z,90740.03
2023-05-14T10:37:43.870Z,90731.44
2023-05-14T10:40:10.408Z,90731.25
2023-05-14T10:42:40.607Z,90737.50
2023-05-14T10:45:08.161Z,90733.38
2023-05-14T10:47:44.509Z,90734.28
2023-05-14T10:50:11.185Z,90722.25
2023-05-14T10:52:37.549Z,90731.59
2023-05-14T10:55:06.983Z,90729.41
2023-05-14T10:57:34.059Z,90723.97
2023-05-14T11:00:00.916Z,90725.09
2023-05-14T11:02:28.477Z,90715.31
2023-05-14T11:05:04.940Z,90706.88
2023-05-14T11:07:38.024Z,90707.50
2023-05-14T11:10:10.971Z,90704.88
2023-05-14T11:12:37.992Z,90705.63
2023-05-14T11:15:05.826Z,90697.19
2023-05-14T11:17:32.181Z,90699.13
2023-05-14T11:19:58.807Z,90692.41
2023-05-14T11:22:25.132Z,90686.53
2023-05-14T11:24:51.575Z,90690.22
2023-05-14T11:27:18.154Z,90693.19
2023-05-14T11:29:45.506Z,90682.22
2023-05-14T11:32:12.050Z,90679.81
2023-05-14T11:34:38.459Z,90675.75
2023-05-14T11:37:05.344Z,90666.84
2023-05-14T11:39:32.949Z,90667.53
2023-05-14T11:41:59.443Z,90671.63
2023-05-14T11:44:25.849Z,90663.03
2023-05-14T11:46:58.251Z,90655.69
2023-05-14T11:49:25.205Z,90660.75
2023-05-14T11:52:00.872Z,90653.84
2023-05-14T11:54:27.716Z,90658.38
2023-05-14T11:56:54.413Z,90644.94
2023-05-14T11:59:21.379Z,90637.72
2023-05-14T12:01:49.494Z,90642.28
2023-05-14T12:04:18.839Z,90641.31
2023-05-14T12:06:46.616Z,90638.41
2023-05-14T12:09:12.994Z,90637.19
2023-05-14T12:11:39.377Z,90632.75
2023-05-14T12:14:12.697Z,90623.81
2023-05-14T12:16:40.029Z,90634.63
2023-05-14T12:19:06.448Z,90629.66
2023-05-14T12:21:32.769Z,90633.84
2023-05-14T12:24:00.046Z,90627.50
2023-05-14T12:26:27.395Z,90631.31
2023-05-14T12:29:00.594Z,90624.47
2023-05-14T12:31:30.609Z,90631.41
2023-05-14T12:33:56.916Z,90632.06
2023-05-14T12:36:23.207Z,90625.75
2023-05-14T12:38:49.837Z,90624.84
2023-05-14T12:41:17.196Z,90628.25
2023-05-14T12:43:43.579Z,90620.91
2023-05-14T12:46:09.895Z,90614.06
2023-05-14T12:48:36.182Z,90603.50
2023-05-14T12:51:02.490Z,90602.94
2023-05-14T12:53:28.779Z,90599.97
2023-05-14T12:55:55.185Z,90613.63
2023-05-14T12:58:21.489Z,90597.84
2023-05-14T13:00:47.947Z,90601.25
2023-05-14T13:03:14.468Z,90595.50
2023-05-14T13:05:40.785Z,90601.00
2023-05-14T13:08:07.115Z,90601.19
2023-05-14T13:10:33.445Z,90599.28
2023-05-14T13:12:59.849Z,90589.28
2023-05-14T13:15:26.372Z,90588.63
2023-05-14T13:17:52.883Z,90591.25
2023-05-14T13:20:19.269Z,90588.56
2023-05-14T13:22:45.617Z,90592.41
2023-05-14T13:25:11.915Z,90588.03
2023-05-14T13:27:38.222Z,90597.63
2023-05-14T13:30:04.685Z,90599.25
2023-05-14T13:32:31.016Z,90589.38
2023-05-14T13:34:57.381Z,90589.00
2023-05-14T13:37:24.222Z,90587.47
2023-05-14T13:39:51.546Z,90592.25
2023-05-14T13:42:18.190Z,90595.94
2023-05-14T13:44:44.485Z,90594.03
2023-05-14T13:47:10.786Z,90579.47
2023-05-14T13:49:37.130Z,90581.31
2023-05-14T13:52:03.504Z,90583.81
2023-05-14T13:54:29.786Z,90574.81
2023-05-14T13:56:56.103Z,90587.56
2023-05-14T13:59:23.774Z,90576.00
2023-05-14T14:01:51.459Z,90574.81
2023-05-14T14:04:18.105Z,90562.47
2023-05-14T14:06:44.409Z,90584.88
2023-05-14T14:09:10.802Z,90584.50
2023-05-14T14:11:37.209Z,90581.34
2023-05-14T14:14:03.562Z,90582.09
2023-05-14T14:16:29.958Z,90586.50
2023-05-14T14:18:57.264Z,90580.94
2023-05-14T14:21:23.679Z,90586.31
2023-05-14T14:23:49.969Z,90596.72
2023-05-14T14:26:16.288Z,90593.19
2023-05-14T14:28:42.832Z,90603.53
2023-05-14T14:31:09.149Z,90607.81
2023-05-14T14:33:35.635Z,90612.25
2023-05-14T14:36:01.903Z,90602.97
2023-05-14T14:38:28.387Z,90608.84
2023-05-14T14:40:54.770Z,90599.41
2023-05-14T14:43:21.090Z,90612.03
2023-05-14T14:45:48.925Z,90624.72
2023-05-14T14:48:31.786Z,90616.97
2023-05-14T14:50:58.130Z,90618.34
2023-05-14T14:53:24.741Z,90617.59
2023-05-14T14:55:51.088Z,90620.00
2023-05-14T14:58:17.924Z,90611.66
2023-05-14T15:00:44.205Z,90609.63
2023-05-14T15:03:10.615Z,90605.41
2023-05-14T15:05:37.079Z,90612.53
2023-05-14T15:08:03.649Z,90603.88
2023-05-14T15:10:30.590Z,90615.75
2023-05-14T15:12:57.900Z,90620.91
2023-05-14T15:15:24.611Z,90603.97
2023-05-14T15:17:51.063Z,90614.03
2023-05-14T15:20:17.359Z,90603.47
2023-05-14T15:22:43.829Z,90609.09
2023-05-14T15:25:10.146Z,90615.81
2023-05-14T15:27:38.245Z,90619.69
2023-05-14T15:30:04.828Z,90619.28
2023-05-14T15:32:31.364Z,90626.56
2023-05-14T15:34:57.682Z,90626.63
2023-05-14T15:37:24.015Z,90626.38
2023-05-14T15:39:50.326Z,90628.22
2023-05-14T15:42:16.660Z,90639.00
2023-05-14T15:44:42.956Z,90640.13
2023-05-14T15:47:09.246Z,90628.81
2023-05-14T15:49:35.553Z,90638.09
2023-05-14T15:52:02.774Z,90638.03
2023-05-14T15:54:29.245Z,90635.03
2023-05-14T15:56:55.939Z,90646.00
2023-05-14T15:59:22.263Z,90638.59
2023-05-14T16:01:50.068Z,90630.44
2023-05-14T16:04:16.375Z,90638.41
2023-05-14T16:06:44.732Z,90639.50
2023-05-14T16:09:11.235Z,90632.88
2023-05-14T16:11:37.540Z,90637.25
2023-05-14T16:14:03.858Z,90635.81
2023-05-14T16:16:30.307Z,90631.38
2023-05-14T16:18:56.661Z,90632.25
2023-05-14T16:21:22.974Z,90633.16
2023-05-14T16:23:49.266Z,90639.00
2023-05-14T16:26:15.707Z,90628.75
2023-05-14T16:28:42.700Z,90628.25
2023-05-14T16:33:35.294Z,90621.97
2023-05-14T16:38:33.239Z,90627.78
2023-05-14T16:40:59.640Z,90625.53
2023-05-14T16:43:25.917Z,90631.00
2023-05-14T16:45:52.237Z,90624.06
2023-05-14T16:48:18.678Z,90621.09
2023-05-14T16:50:45.026Z,90633.28
2023-05-14T16:53:11.326Z,90633.38
2023-05-14T16:55:37.653Z,90639.06
2023-05-14T16:58:03.938Z,90633.13
2023-05-14T17:00:30.499Z,90641.88
2023-05-14T17:02:56.810Z,90655.22
2023-05-14T17:05:23.293Z,90650.75
2023-05-14T17:07:50.109Z,90665.44
2023-05-14T17:10:16.561Z,90666.88
2023-05-14T17:12:42.848Z,90657.31
2023-05-14T17:15:09.445Z,90672.56
2023-05-14T17:17:35.752Z,90673.47
2023-05-14T17:20:02.069Z,90682.91
2023-05-14T17:22:28.350Z,90689.47
2023-05-14T17:24:54.766Z,90683.34
2023-05-14T17:27:21.068Z,90687.72
2023-05-14T17:29:49.225Z,90693.19
2023-05-14T17:32:15.618Z,90695.88
2023-05-14T17:34:41.900Z,90690.72
2023-05-14T17:37:08.168Z,90687.75
2023-05-14T17:39:34.555Z,90679.16
2023-05-14T17:42:00.854Z,90691.53
2023-05-14T17:44:27.150Z,90690.94
2023-05-14T17:46:53.464Z,90688.47
2023-05-14T17:49:19.762Z,90694.66
2023-05-14T17:51:46.124Z,90698.41
2023-05-14T17:54:12.414Z,90701.88
2023-05-14T17:56:38.701Z,90695.84
2023-05-14T17:59:05.012Z,90698.94
2023-05-14T18:01:31.481Z,90696.47
2023-05-14T18:03:57.868Z,90702.88
2023-05-14T18:06:24.190Z,90707.19
2023-05-14T18:08:50.506Z,90708.28
2023-05-14T18:11:16.790Z,90707.91
2023-05-14T18:13:43.191Z,90713.16
2023-05-14T18:16:09.492Z,90718.06
2023-05-14T18:18:35.855Z,90709.16
2023-05-14T18:21:02.159Z,90720.84
2023-05-14T18:23:28.503Z,90723.06
2023-05-14T18:25:54.802Z,90725.28
2023-05-14T18:28:21.469Z,90727.38
2023-05-14T18:30:49.034Z,90732.97
2023-05-14T18:33:15.411Z,90716.38
2023-05-14T18:35:41.973Z,90721.88
2023-05-14T18:38:08.276Z,90721.88
2023-05-14T18:40:34.807Z,90727.53
2023-05-14T18:43:01.105Z,90733.50
2023-05-14T18:45:27.375Z,90724.09
2023-05-14T18:47:53.700Z,90731.66
2023-05-14T18:50:20.056Z,90732.59
2023-05-14T18:52:46.749Z,90744.25
2023-05-14T18:55:13.090Z,90741.94
2023-05-14T18:57:39.380Z,90730.16
2023-05-14T19:00:06.152Z,90737.66
2023-05-14T19:02:32.537Z,90745.03
2023-05-14T19:04:58.827Z,90736.13
2023-05-14T19:07:25.116Z,90742.66
2023-05-14T19:09:51.771Z,90740.75
2023-05-14T19:12:18.059Z,90744.16
2023-05-14T19:14:44.388Z,90742.03
2023-05-14T19:17:11.030Z,90751.97
2023-05-14T19:19:37.705Z,90753.88
2023-05-14T19:22:04.067Z,90764.03
2023-05-14T19:24:30.383Z,90764.44
2023-05-14T19:26:56.675Z,90765.72
2023-05-14T19:29:22.958Z,90769.59
2023-05-14T19:31:49.985Z,90762.16
2023-05-14T19:34:16.536Z,90768.50
2023-05-14T19:36:42.852Z,90774.59
2023-05-14T19:39:09.608Z,90777.41
2023-05-14T19:41:36.068Z,90776.00
2023-05-14T19:44:02.417Z,90774.47
2023-05-14T19:46:28.754Z,90781.06
2023-05-14T19:48:55.205Z,90765.03
2023-05-14T19:51:21.487Z,90775.94
2023-05-14T19:53:47.799Z,90779.16
2023-05-14T19:56:14.099Z,90794.97
2023-05-14T19:58:40.581Z,90786.63
2023-05-14T20:01:06.974Z,90791.84
2023-05-14T20:03:33.436Z,90794.03
2023-05-14T20:05:59.758Z,90800.25
2023-05-14T20:08:26.357Z,90797.78
2023-05-14T20:10:52.636Z,90792.22
2023-05-14T20:13:18.932Z,90790.97
2023-05-14T20:15:45.280Z,90793.06
2023-05-14T20:18:11.569Z,90802.66
2023-05-14T20:20:37.984Z,90800.00
2023-05-14T20:23:04.262Z,90795.03
2023-05-14T20:25:32.594Z,90799.97
2023-05-14T20:28:00.316Z,90797.41
2023-05-14T20:30:27.282Z,90791.22
2023-05-14T20:32:53.682Z,90802.56
2023-05-14T20:35:20.040Z,90801.53
2023-05-14T20:37:47.154Z,90803.06
2023-05-14T20:40:13.513Z,90796.78
2023-05-14T20:42:39.857Z,90803.41
2023-05-14T20:45:06.645Z,90792.66
2023-05-14T20:47:34.102Z,90796.72
2023-05-14T20:50:00.667Z,90796.59
2023-05-14T20:52:26.954Z,90794.84
2023-05-14T20:54:53.332Z,90798.34
2023-05-14T20:57:19.816Z,90807.25
2023-05-14T20:59:46.188Z,90801.56
2023-05-14T21:02:12.639Z,90797.88
2023-05-14T21:04:39.141Z,90797.50
2023-05-14T21:07:05.542Z,90796.47
2023-05-14T21:09:31.817Z,90792.09
2023-05-14T21:11:58.116Z,90789.88
2023-05-14T21:14:24.450Z,90792.88
2023-05-14T21:16:50.745Z,90787.06
2023-05-14T21:19:17.157Z,90785.59
2023-05-14T21:21:43.567Z,90795.13
2023-05-14T21:24:09.852Z,90795.66
2023-05-14T21:26:36.836Z,90784.03
2023-05-14T21:29:03.577Z,90783.13
2023-05-14T21:31:29.942Z,90781.38
2023-05-14T21:33:56.331Z,90780.94
2023-05-14T21:36:22.660Z,90784.06
2023-05-14T21:38:48.969Z,90779.75
2023-05-14T21:41:15.273Z,90780.94
2023-05-14T21:43:41.625Z,90775.00
2023-05-14T21:46:08.478Z,90781.78
2023-05-14T21:48:34.908Z,90776.53
2023-05-14T21:51:01.318Z,90786.97
2023-05-14T21:53:27.637Z,90777.25
2023-05-14T21:55:55.221Z,90779.22
2023-05-14T21:58:21.506Z,90779.78
2023-05-14T22:00:47.847Z,90782.59
2023-05-14T22:03:14.474Z,90789.50
2023-05-14T22:05:40.888Z,90787.56
2023-05-14T22:08:07.423Z,90785.34
2023-05-14T22:10:34.395Z,90783.75
2023-05-14T22:13:00.700Z,90777.19
2023-05-14T22:15:27.017Z,90783.56
2023-05-14T22:17:53.479Z,90784.72
2023-05-14T22:20:19.806Z,90779.97
2023-05-14T22:22:46.114Z,90781.81
2023-05-14T22:25:12.385Z,90780.19
2023-05-14T22:27:38.679Z,90776.00
2023-05-14T22:30:05.241Z,90774.16
2023-05-14T22:32:31.568Z,90762.88
2023-05-14T22:34:57.918Z,90777.16
2023-05-14T22:37:24.192Z,90765.84
2023-05-14T22:39:50.569Z,90762.63
2023-05-14T22:42:16.905Z,90771.16
2023-05-14T22:44:43.203Z,90768.38
2023-05-14T22:47:09.519Z,90765.41
2023-05-14T22:49:35.873Z,90769.13
2023-05-14T22:52:02.251Z,90769.91
2023-05-14T22:54:28.553Z,90770.69
2023-05-14T22:56:54.882Z,90777.13
2023-05-14T22:59:23.429Z,90780.75
2023-05-14T23:01:50.307Z,90776.22
2023-05-14T23:04:16.698Z,90774.72
2023-05-14T23:06:43.030Z,90783.09
2023-05-14T23:09:09.384Z,90777.50
2023-05-14T23:11:35.680Z,90781.88
2023-05-14T23:14:01.987Z,90782.88
2023-05-14T23:16:28.275Z,90790.16
2023-05-14T23:18:54.763Z,90787.25
2023-05-14T23:21:21.184Z,90783.75
2023-05-14T23:23:48.361Z,90793.41
2023-05-14T23:26:14.648Z,90780.00
2023-05-14T23:28:41.035Z,90780.50
2023-05-14T23:31:07.351Z,90784.69
2023-05-14T23:33:33.664Z,90785.88
2023-05-14T23:36:00.054Z,90776.94
2023-05-14T23:38:26.513Z,90775.94
2023-05-14T23:40:52.857Z,90780.78
2023-05-14T23:43:19.143Z,90778.47
2023-05-14T23:45:45.471Z,90778.34
2023-05-14T23:48:11.810Z,90783.22
2023-05-14T23:50:38.160Z,90778.59
2023-05-14T23:53:04.479Z,90770.72
2023-05-14T23:55:30.778Z,90770.94
2023-05-14T23:57:57.055Z,90774.88
